createdAt,value
2019-01-17T00:02:05.887Z,3.03
2019-01-17T00:05:10.936Z,2.90
2019-01-17T00:08:18.757Z,3.00
2019-01-17T00:11:07.155Z,3.20
2019-01-17T00:13:57.060Z,3.00
2019-01-17T00:16:54.112Z,2.73
2019-01-17T00:19:43.949Z,2.70
2019-01-17T00:22:35.122Z,3.00
2019-01-17T00:25:23.552Z,2.73
2019-01-17T00:28:08.079Z,3.07
2019-01-17T00:31:00.553Z,3.20
2019-01-17T00:33:48.999Z,2.80
2019-01-17T00:36:41.937Z,2.90
2019-01-17T00:39:31.328Z,2.73
2019-01-17T00:42:30.116Z,2.50
2019-01-17T00:45:32.023Z,2.07
2019-01-17T00:48:32.239Z,2.20
2019-01-17T00:51:37.180Z,2.63
2019-01-17T00:54:25.849Z,2.43
2019-01-17T00:57:14.150Z,1.80
2019-01-17T01:00:02.357Z,1.70
2019-01-17T01:02:58.159Z,1.30
2019-01-17T01:05:47.907Z,1.23
2019-01-17T01:08:36.350Z,1.10
2019-01-17T01:11:26.125Z,1.00
2019-01-17T01:14:14.420Z,1.07
2019-01-17T01:17:20.281Z,1.10
2019-01-17T01:20:02.849Z,0.90
2019-01-17T01:22:51.084Z,1.20
2019-01-17T01:25:46.922Z,1.10
2019-01-17T01:28:39.397Z,1.00
2019-01-17T01:31:30.981Z,1.20
2019-01-17T01:34:19.416Z,1.17
2019-01-17T01:37:09.184Z,1.10
2019-01-17T01:39:57.977Z,1.10
2019-01-17T01:42:46.827Z,1.10
2019-01-17T01:45:35.426Z,1.20
2019-01-17T01:48:18.993Z,1.03
2019-01-17T01:51:27.626Z,1.00
2019-01-17T01:53:58.676Z,0.90
2019-01-17T01:56:29.609Z,1.10
2019-01-17T01:59:00.632Z,1.10
2019-01-17T02:01:31.580Z,1.10
2019-01-17T02:04:02.633Z,1.10
2019-01-17T02:06:33.619Z,1.20
2019-01-17T02:09:07.133Z,1.50
2019-01-17T02:11:37.825Z,1.50
2019-01-17T02:14:09.857Z,1.40
2019-01-17T02:16:40.708Z,1.20
2019-01-17T02:19:11.533Z,1.40
2019-01-17T02:21:42.781Z,1.40
2019-01-17T02:24:14.477Z,1.10
2019-01-17T02:26:46.369Z,1.23
2019-01-17T02:29:17.349Z,1.30
2019-01-17T02:31:48.258Z,1.37
2019-01-17T02:34:23.769Z,1.30
2019-01-17T02:37:22.971Z,1.20
2019-01-17T02:39:56.673Z,1.30
2019-01-17T02:42:40.377Z,1.30
2019-01-17T02:45:22.609Z,1.40
2019-01-17T02:48:00.587Z,1.30
2019-01-17T02:50:35.173Z,1.10
2019-01-17T02:53:06.705Z,1.17
2019-01-17T02:55:42.079Z,1.20
2019-01-17T02:58:13.337Z,1.10
2019-01-17T03:00:44.378Z,1.40
2019-01-17T03:03:15.716Z,1.20
2019-01-17T03:05:46.971Z,1.30
2019-01-17T03:08:18.029Z,0.97
2019-01-17T03:10:49.159Z,1.10
2019-01-17T03:13:20.134Z,1.23
2019-01-17T03:15:51.652Z,1.00
2019-01-17T03:18:22.925Z,1.10
2019-01-17T03:20:53.900Z,1.07
2019-01-17T03:23:26.156Z,1.00
2019-01-17T03:26:00.202Z,1.40
2019-01-17T03:28:31.315Z,1.23
2019-01-17T03:31:02.389Z,1.20
2019-01-17T03:33:33.564Z,0.90
2019-01-17T03:36:04.803Z,1.07
2019-01-17T03:38:36.097Z,1.20
2019-01-17T03:41:06.870Z,1.20
2019-01-17T03:43:37.975Z,1.20
2019-01-17T03:46:09.097Z,1.33
2019-01-17T03:48:40.043Z,1.20
2019-01-17T03:51:11.316Z,1.20
2019-01-17T03:53:45.109Z,1.13
2019-01-17T03:56:21.556Z,1.30
2019-01-17T03:58:48.521Z,1.00
2019-01-17T04:01:19.667Z,1.00
2019-01-17T04:03:51.466Z,1.03
2019-01-17T04:06:22.328Z,1.00
2019-01-17T04:08:53.527Z,1.07
2019-01-17T04:11:25.082Z,0.90
2019-01-17T04:13:55.660Z,1.30
2019-01-17T04:16:26.634Z,1.30
2019-01-17T04:18:57.576Z,1.03
2019-01-17T04:21:28.584Z,0.90
2019-01-17T04:23:59.211Z,0.97
2019-01-17T04:26:29.922Z,1.20
2019-01-17T04:29:01.140Z,1.00
2019-01-17T04:31:31.794Z,1.13
2019-01-17T04:34:02.794Z,1.10
2019-01-17T04:36:33.476Z,1.10
2019-01-17T04:39:05.727Z,0.93
2019-01-17T04:41:36.822Z,0.80
2019-01-17T04:44:07.866Z,1.30
2019-01-17T04:46:38.811Z,1.30
2019-01-17T04:49:10.387Z,1.13
2019-01-17T04:51:41.605Z,1.00
2019-01-17T04:54:12.124Z,0.90
2019-01-17T04:56:42.790Z,1.00
2019-01-17T04:59:13.518Z,0.77
2019-01-17T05:01:44.378Z,1.00
2019-01-17T05:04:15.335Z,1.10
2019-01-17T05:06:46.233Z,0.97
2019-01-17T05:09:16.896Z,1.00
2019-01-17T05:11:48.104Z,1.03
2019-01-17T05:14:19.376Z,1.33
2019-01-17T05:16:50.608Z,0.83
2019-01-17T05:19:21.441Z,1.00
2019-01-17T05:21:52.643Z,0.90
2019-01-17T05:24:23.954Z,1.00
2019-01-17T05:26:55.262Z,0.90
2019-01-17T05:29:26.721Z,1.53
2019-01-17T05:31:57.715Z,1.17
2019-01-17T05:34:28.615Z,1.20
2019-01-17T05:36:59.471Z,0.90
2019-01-17T05:39:30.486Z,0.90
2019-01-17T05:42:06.398Z,1.03
2019-01-17T05:44:37.282Z,1.10
2019-01-17T05:47:10.056Z,1.10
2019-01-17T05:49:47.039Z,0.93
2019-01-17T05:52:21.384Z,1.03
2019-01-17T05:54:52.372Z,1.10
2019-01-17T05:57:23.371Z,1.00
2019-01-17T05:59:57.174Z,0.93
2019-01-17T06:02:27.948Z,0.77
2019-01-17T06:05:01.086Z,0.70
2019-01-17T06:07:35.415Z,1.10
2019-01-17T06:10:07.925Z,0.80
2019-01-17T06:12:38.985Z,0.80
2019-01-17T06:15:10.420Z,0.60
2019-01-17T06:17:44.132Z,0.80
2019-01-17T06:20:27.399Z,0.90
2019-01-17T06:23:01.571Z,0.97
2019-01-17T06:25:36.528Z,0.80
2019-01-17T06:28:07.995Z,1.00
2019-01-17T06:30:42.097Z,0.80
2019-01-17T06:33:27.079Z,0.77
2019-01-17T06:36:01.523Z,0.80
2019-01-17T06:38:34.866Z,0.90
2019-01-17T06:41:15.750Z,0.70
2019-01-17T06:43:51.122Z,0.83
2019-01-17T06:46:25.546Z,0.77
2019-01-17T06:48:58.923Z,0.97
2019-01-17T06:51:36.371Z,1.10
2019-01-17T06:54:12.363Z,0.93
2019-01-17T06:56:48.431Z,0.83
2019-01-17T06:59:26.960Z,1.00
2019-01-17T07:01:58.067Z,0.73
2019-01-17T07:04:29.822Z,1.00
2019-01-17T07:07:06.301Z,0.97
2019-01-17T07:09:39.736Z,1.00
2019-01-17T07:12:15.302Z,0.90
2019-01-17T07:14:49.445Z,0.80
2019-01-17T07:17:20.748Z,0.73
2019-01-17T07:19:52.426Z,0.87
2019-01-17T07:22:27.837Z,0.70
2019-01-17T07:25:02.336Z,0.70
2019-01-17T07:27:41.345Z,0.97
2019-01-17T07:30:18.351Z,1.10
2019-01-17T07:32:54.661Z,1.00
2019-01-17T07:35:25.725Z,0.80
2019-01-17T07:37:57.446Z,1.20
2019-01-17T07:40:28.597Z,0.83
2019-01-17T07:42:59.540Z,0.80
2019-01-17T07:45:31.554Z,0.77
2019-01-17T07:48:02.809Z,0.80
2019-01-17T07:50:33.798Z,0.90
2019-01-17T07:53:05.022Z,0.77
2019-01-17T07:55:35.995Z,0.90
2019-01-17T07:58:07.054Z,0.80
2019-01-17T08:00:38.174Z,0.90
2019-01-17T08:03:08.949Z,1.00
2019-01-17T08:05:40.314Z,1.00
2019-01-17T08:08:11.720Z,1.00
2019-01-17T08:10:42.716Z,0.97
2019-01-17T08:13:13.876Z,0.90
2019-01-17T08:15:44.930Z,0.70
2019-01-17T08:18:18.736Z,0.67
2019-01-17T08:20:48.364Z,1.00
2019-01-17T08:23:19.277Z,0.70
2019-01-17T08:25:54.129Z,0.80
2019-01-17T08:28:22.580Z,0.90
2019-01-17T08:30:53.237Z,0.90
2019-01-17T08:33:24.028Z,0.80
2019-01-17T08:35:55.049Z,0.83
2019-01-17T08:38:25.776Z,1.10
2019-01-17T08:40:56.769Z,0.83
2019-01-17T08:43:28.525Z,1.03
2019-01-17T08:45:59.244Z,0.63
2019-01-17T08:48:30.289Z,0.80
2019-01-17T08:51:01.390Z,0.70
2019-01-17T08:53:32.267Z,0.97
2019-01-17T08:56:03.149Z,0.80
2019-01-17T08:58:34.177Z,0.70
2019-01-17T09:01:05.389Z,0.97
2019-01-17T09:03:35.989Z,0.60
2019-01-17T09:06:07.369Z,0.70
2019-01-17T09:08:38.413Z,0.70
2019-01-17T09:11:09.349Z,0.80
2019-01-17T09:13:39.993Z,0.60
2019-01-17T09:16:11.023Z,1.00
2019-01-17T09:18:42.061Z,0.73
2019-01-17T09:21:12.964Z,0.90
2019-01-17T09:23:45.725Z,0.80
2019-01-17T09:26:16.918Z,0.83
2019-01-17T09:28:47.738Z,0.77
2019-01-17T09:31:23.506Z,0.90
2019-01-17T09:33:54.593Z,1.00
2019-01-17T09:36:25.542Z,0.90
2019-01-17T09:38:56.327Z,0.83
2019-01-17T09:41:27.312Z,0.90
2019-01-17T09:43:57.989Z,0.80
2019-01-17T09:46:28.916Z,1.00
2019-01-17T09:49:00.110Z,0.90
2019-01-17T09:51:30.892Z,0.80
2019-01-17T09:54:01.677Z,0.77
2019-01-17T09:56:32.481Z,0.97
2019-01-17T09:59:03.048Z,0.90
2019-01-17T10:01:33.586Z,0.70
2019-01-17T10:04:04.328Z,0.87
2019-01-17T10:06:35.223Z,1.00
2019-01-17T10:09:08.020Z,0.90
2019-01-17T10:11:38.869Z,0.90
2019-01-17T10:14:09.632Z,1.20
2019-01-17T10:17:21.118Z,0.83
2019-01-17T10:20:20.285Z,0.70
2019-01-17T10:23:54.463Z,0.90
2019-01-17T10:26:53.529Z,0.57
2019-01-17T10:29:58.990Z,0.70
2019-01-17T10:33:15.485Z,0.80
2019-01-17T10:36:17.849Z,0.50
2019-01-17T10:39:20.333Z,0.60
2019-01-17T10:42:33.152Z,0.63
2019-01-17T10:45:49.573Z,0.60
2019-01-17T10:49:02.311Z,0.57
2019-01-17T10:51:49.560Z,0.80
2019-01-17T10:54:43.065Z,0.57
2019-01-17T10:57:54.221Z,0.70
2019-01-17T11:01:14.800Z,0.70
2019-01-17T11:04:44.571Z,0.60
2019-01-17T11:07:48.096Z,0.60
2019-01-17T11:11:11.745Z,1.00
2019-01-17T11:14:04.113Z,0.83
2019-01-17T11:17:12.852Z,0.80
2019-01-17T11:20:33.625Z,0.83
2019-01-17T11:23:57.212Z,0.80
2019-01-17T11:27:19.777Z,0.60
2019-01-17T11:30:19.149Z,0.80
2019-01-17T11:33:28.386Z,0.63
2019-01-17T11:36:32.120Z,1.10
2019-01-17T11:39:46.463Z,0.60
2019-01-17T11:43:03.689Z,0.70
2019-01-17T11:46:01.969Z,0.70
2019-01-17T11:49:12.105Z,0.70
2019-01-17T11:52:17.878Z,0.50
2019-01-17T11:55:25.063Z,0.80
2019-01-17T11:58:42.030Z,0.77
2019-01-17T12:01:39.247Z,0.70
2019-01-17T12:04:37.033Z,0.77
2019-01-17T12:07:13.685Z,0.60
2019-01-17T12:09:44.832Z,0.70
2019-01-17T12:12:23.655Z,0.60
2019-01-17T12:14:57.458Z,0.67
2019-01-17T12:17:29.230Z,0.70
2019-01-17T12:20:00.465Z,0.70
2019-01-17T12:22:31.284Z,0.53
2019-01-17T12:25:02.578Z,0.80
2019-01-17T12:27:33.633Z,0.60
2019-01-17T12:30:05.062Z,0.60
2019-01-17T12:32:47.038Z,0.50
2019-01-17T12:35:17.995Z,0.60
2019-01-17T12:37:48.826Z,0.50
2019-01-17T12:40:19.779Z,0.80
2019-01-17T12:42:50.900Z,0.80
2019-01-17T12:45:21.676Z,0.60
2019-01-17T12:47:52.696Z,0.77
2019-01-17T12:50:23.740Z,0.63
2019-01-17T12:52:54.448Z,0.90
2019-01-17T12:55:25.504Z,0.60
2019-01-17T12:57:56.207Z,0.60
2019-01-17T13:00:27.416Z,0.80
2019-01-17T13:02:58.334Z,0.50
2019-01-17T13:05:29.008Z,0.63
2019-01-17T13:08:00.025Z,0.60
2019-01-17T13:10:30.881Z,0.90
2019-01-17T13:13:02.579Z,0.70
2019-01-17T13:15:33.736Z,0.73
2019-01-17T13:18:04.453Z,0.47
2019-01-17T13:20:35.780Z,0.67
2019-01-17T13:23:06.550Z,0.50
2019-01-17T13:25:37.478Z,0.50
2019-01-17T13:28:08.314Z,0.63
2019-01-17T13:30:38.956Z,0.60
2019-01-17T13:33:09.770Z,0.60
2019-01-17T13:35:40.837Z,0.40
2019-01-17T13:38:11.796Z,0.63
2019-01-17T13:40:42.926Z,0.70
2019-01-17T13:43:16.352Z,0.70
2019-01-17T13:45:47.502Z,0.60
2019-01-17T13:48:19.133Z,0.60
2019-01-17T13:50:50.168Z,0.90
2019-01-17T13:53:21.421Z,0.63
2019-01-17T13:55:52.545Z,1.00
2019-01-17T13:58:23.793Z,0.80
2019-01-17T14:00:55.684Z,0.80
2019-01-17T14:03:28.748Z,0.80
2019-01-17T14:06:11.071Z,0.73
2019-01-17T14:08:41.958Z,0.63
2019-01-17T14:11:13.741Z,0.70
2019-01-17T14:13:48.512Z,0.60
2019-01-17T14:16:20.372Z,0.83
2019-01-17T14:19:07.743Z,1.00
2019-01-17T14:21:44.713Z,0.80
2019-01-17T14:24:15.437Z,0.90
2019-01-17T14:26:46.842Z,1.03
2019-01-17T14:29:22.233Z,1.00
2019-01-17T14:31:59.005Z,1.10
2019-01-17T14:34:35.267Z,1.00
2019-01-17T14:37:15.272Z,1.20
2019-01-17T14:39:47.726Z,0.93
2019-01-17T14:42:26.815Z,0.87
2019-01-17T14:45:02.569Z,0.90
2019-01-17T14:47:33.509Z,1.00
2019-01-17T14:50:06.360Z,0.70
2019-01-17T14:52:37.810Z,0.77
2019-01-17T14:55:09.496Z,0.70
2019-01-17T14:57:40.885Z,1.00
2019-01-17T15:00:21.094Z,0.80
2019-01-17T15:02:52.228Z,0.70
2019-01-17T15:05:23.296Z,0.50
2019-01-17T15:07:55.467Z,0.60
2019-01-17T15:10:37.916Z,0.60
2019-01-17T15:13:09.028Z,0.40
2019-01-17T15:15:40.155Z,0.50
2019-01-17T15:18:10.923Z,0.80
2019-01-17T15:20:42.351Z,0.60
2019-01-17T15:23:16.409Z,0.60
2019-01-17T15:25:47.537Z,0.57
2019-01-17T15:28:18.487Z,0.60
2019-01-17T15:30:49.710Z,0.60
2019-01-17T15:33:20.961Z,0.53
2019-01-17T15:36:10.723Z,0.57
2019-01-17T15:38:41.906Z,0.70
2019-01-17T15:41:12.964Z,0.63
2019-01-17T15:43:44.137Z,0.67
2019-01-17T15:46:15.284Z,0.67
2019-01-17T15:48:46.434Z,0.83
2019-01-17T15:51:17.640Z,0.60
2019-01-17T15:53:48.718Z,0.50
2019-01-17T15:56:19.450Z,0.70
2019-01-17T15:58:50.296Z,0.60
2019-01-17T16:01:21.517Z,0.67
2019-01-17T16:03:52.697Z,0.60
2019-01-17T16:06:23.821Z,0.73
2019-01-17T16:08:56.904Z,0.53
2019-01-17T16:11:28.029Z,0.60
2019-01-17T16:13:59.192Z,0.53
2019-01-17T16:16:30.316Z,0.83
2019-01-17T16:19:01.474Z,0.70
2019-01-17T16:21:32.667Z,0.40
2019-01-17T16:24:04.279Z,0.40
2019-01-17T16:26:36.754Z,0.60
2019-01-17T16:29:07.574Z,0.50
2019-01-17T16:31:39.405Z,0.60
2019-01-17T16:34:10.697Z,0.60
2019-01-17T16:36:41.697Z,0.60
2019-01-17T16:39:12.761Z,0.60
2019-01-17T16:41:43.816Z,0.70
2019-01-17T16:44:14.540Z,0.50
2019-01-17T16:46:45.702Z,0.60
2019-01-17T16:49:16.225Z,0.77
2019-01-17T16:51:47.541Z,0.70
2019-01-17T16:54:19.532Z,0.50
2019-01-17T16:56:50.427Z,0.80
2019-01-17T16:59:21.503Z,0.60
2019-01-17T17:01:52.705Z,0.60
2019-01-17T17:04:23.398Z,0.87
2019-01-17T17:06:54.165Z,0.60
2019-01-17T17:09:24.985Z,0.83
2019-01-17T17:11:57.012Z,0.77
2019-01-17T17:14:28.149Z,0.73
2019-01-17T17:16:59.119Z,0.90
2019-01-17T17:19:30.378Z,0.70
2019-01-17T17:22:01.154Z,0.70
2019-01-17T17:24:32.378Z,0.90
2019-01-17T17:27:03.500Z,0.53
2019-01-17T17:29:34.453Z,0.70
2019-01-17T17:32:05.569Z,0.90
2019-01-17T17:34:36.644Z,0.80
2019-01-17T17:37:07.382Z,1.00
2019-01-17T17:39:38.388Z,0.70
2019-01-17T17:42:09.428Z,0.90
2019-01-17T17:44:40.656Z,0.80
2019-01-17T17:47:11.717Z,0.73
2019-01-17T17:49:43.143Z,1.03
2019-01-17T17:52:14.006Z,0.77
2019-01-17T17:54:45.146Z,0.87
2019-01-17T17:57:15.863Z,0.90
2019-01-17T17:59:46.809Z,0.67
2019-01-17T18:02:25.637Z,0.80
2019-01-17T18:04:56.488Z,0.83
2019-01-17T18:07:27.214Z,0.73
2019-01-17T18:09:58.536Z,0.80
2019-01-17T18:12:29.289Z,0.83
2019-01-17T18:15:00.227Z,0.80
2019-01-17T18:17:31.280Z,0.70
2019-01-17T18:20:13.072Z,0.80
2019-01-17T18:22:43.864Z,0.70
2019-01-17T18:25:14.866Z,0.60
2019-01-17T18:27:45.806Z,0.60
2019-01-17T18:30:19.192Z,1.17
2019-01-17T18:32:50.210Z,0.90
2019-01-17T18:35:21.214Z,0.70
2019-01-17T18:37:52.557Z,0.67
2019-01-17T18:40:23.448Z,0.80
2019-01-17T18:42:54.435Z,0.60
2019-01-17T18:45:25.339Z,0.90
2019-01-17T18:47:56.042Z,0.73
2019-01-17T18:50:28.788Z,0.87
2019-01-17T18:52:59.894Z,0.70
2019-01-17T18:55:32.055Z,0.80
2019-01-17T18:58:02.683Z,0.83
2019-01-17T19:00:34.644Z,0.70
2019-01-17T19:03:06.817Z,0.70
2019-01-17T19:05:38.070Z,0.70
2019-01-17T19:08:08.685Z,0.83
2019-01-17T19:10:40.129Z,0.80
2019-01-17T19:13:13.041Z,0.93
2019-01-17T19:15:43.980Z,0.70
2019-01-17T19:18:16.376Z,0.77
2019-01-17T19:20:47.185Z,1.00
2019-01-17T19:23:18.329Z,0.70
2019-01-17T19:25:49.155Z,0.90
2019-01-17T19:28:22.361Z,0.80
2019-01-17T19:30:52.510Z,0.70
2019-01-17T19:33:23.861Z,0.90
2019-01-17T19:35:54.665Z,1.07
2019-01-17T19:38:25.453Z,1.00
2019-01-17T19:40:56.325Z,0.80
2019-01-17T19:43:27.279Z,1.00
2019-01-17T19:46:01.223Z,0.90
2019-01-17T19:48:32.126Z,0.80
2019-01-17T19:51:03.384Z,0.90
2019-01-17T19:53:34.551Z,0.90
2019-01-17T19:56:05.556Z,1.20
2019-01-17T19:58:36.754Z,1.00
2019-01-17T20:01:08.719Z,0.97
2019-01-17T20:03:40.229Z,0.90
2019-01-17T20:06:29.824Z,0.83
2019-01-17T20:09:00.965Z,0.93
2019-01-17T20:11:33.458Z,0.90
2019-01-17T20:14:04.508Z,1.00
2019-01-17T20:16:35.221Z,0.90
2019-01-17T20:19:06.424Z,0.90
2019-01-17T20:21:37.229Z,0.97
2019-01-17T20:24:08.144Z,1.00
2019-01-17T20:26:38.969Z,1.00
2019-01-17T20:29:09.748Z,1.37
2019-01-17T20:31:40.752Z,1.13
2019-01-17T20:34:12.118Z,1.10
2019-01-17T20:36:42.784Z,1.40
2019-01-17T20:39:16.740Z,1.10
2019-01-17T20:41:47.774Z,1.40
2019-01-17T20:44:18.997Z,1.10
2019-01-17T20:46:50.290Z,1.20
2019-01-17T20:49:21.052Z,0.93
2019-01-17T20:52:03.044Z,1.20
2019-01-17T20:54:33.825Z,1.20
2019-01-17T20:57:05.621Z,0.93
2019-01-17T20:59:36.346Z,1.00
2019-01-17T21:02:11.705Z,1.17
2019-01-17T21:04:42.652Z,1.00
2019-01-17T21:07:13.465Z,1.00
2019-01-17T21:09:44.410Z,1.10
2019-01-17T21:12:15.324Z,1.03
2019-01-17T21:14:46.199Z,0.83
2019-01-17T21:17:17.104Z,0.90
2019-01-17T21:19:48.180Z,0.90
2019-01-17T21:22:19.196Z,0.87
2019-01-17T21:24:50.340Z,1.00
2019-01-17T21:27:21.561Z,0.80
2019-01-17T21:29:52.660Z,0.90
2019-01-17T21:32:23.816Z,1.10
2019-01-17T21:34:54.912Z,1.00
2019-01-17T21:37:25.641Z,0.93
2019-01-17T21:39:56.183Z,1.10
2019-01-17T21:42:28.780Z,0.97
2019-01-17T21:44:59.928Z,0.87
2019-01-17T21:47:30.931Z,1.20
2019-01-17T21:50:01.675Z,1.10
2019-01-17T21:52:32.528Z,1.10
2019-01-17T21:55:03.550Z,1.17
2019-01-17T21:57:35.593Z,0.90
2019-01-17T22:00:10.004Z,0.90
2019-01-17T22:02:41.688Z,0.80
2019-01-17T22:05:12.705Z,1.00
2019-01-17T22:07:43.363Z,0.93
2019-01-17T22:10:14.623Z,0.80
2019-01-17T22:12:46.071Z,0.80
2019-01-17T22:15:19.340Z,0.90
2019-01-17T22:17:50.324Z,0.70
2019-01-17T22:20:21.512Z,0.77
2019-01-17T22:22:52.656Z,0.90
2019-01-17T22:25:23.405Z,0.80
2019-01-17T22:27:54.340Z,0.60
2019-01-17T22:30:28.488Z,0.90
2019-01-17T22:32:59.289Z,1.00
2019-01-17T22:35:30.376Z,0.70
2019-01-17T22:38:01.800Z,1.03
2019-01-17T22:40:32.757Z,0.70
2019-01-17T22:43:03.787Z,0.80
2019-01-17T22:45:34.533Z,0.83
2019-01-17T22:48:05.628Z,0.77
2019-01-17T22:50:36.631Z,0.70
2019-01-17T22:53:07.438Z,1.00
2019-01-17T22:55:38.391Z,0.70
2019-01-17T22:58:09.412Z,0.90
2019-01-17T23:01:01.318Z,0.80
2019-01-17T23:03:35.568Z,0.80
2019-01-17T23:06:06.909Z,0.90
2019-01-17T23:08:37.534Z,0.77
2019-01-17T23:11:09.296Z,0.67
2019-01-17T23:13:39.873Z,0.73
2019-01-17T23:16:10.925Z,0.90
2019-01-17T23:18:41.708Z,0.70
2019-01-17T23:21:12.832Z,0.63
2019-01-17T23:23:43.508Z,0.70
2019-01-17T23:26:14.845Z,0.97
2019-01-17T23:28:45.616Z,0.77
2019-01-17T23:31:16.532Z,0.57
2019-01-17T23:33:47.590Z,0.60
2019-01-17T23:36:18.406Z,0.77
2019-01-17T23:38:49.588Z,1.20
2019-01-17T23:41:20.788Z,0.90
2019-01-17T23:43:51.624Z,1.10
2019-01-17T23:46:22.708Z,0.70
2019-01-17T23:48:54.229Z,0.90
2019-01-17T23:51:24.980Z,0.70
2019-01-17T23:53:55.660Z,1.00
2019-01-17T23:56:26.472Z,0.60
2019-01-17T23:58:57.156Z,0.97
